sensor_id;sensor_type;location;lat;lon;timestamp;pressure;altitude;pressure_sealevel;temperature;humidity
24280;BME280;12395;42.808;23.408;2023-04-28T00:00:18;95099.22;;;2.63;86.32
24280;BME280;12395;42.808;23.408;2023-04-28T00:02:43;95098.81;;;2.75;85.64
24280;BME280;12395;42.808;23.408;2023-04-28T00:05:11;95103.72;;;2.78;85.41
24280;BME280;12395;42.808;23.408;2023-04-28T00:07:36;95100.13;;;2.79;84.89
24280;BME280;12395;42.808;23.408;2023-04-28T00:10:02;95102.59;;;2.81;84.77
24280;BME280;12395;42.808;23.408;2023-04-28T00:12:27;95092.47;;;2.78;84.23
24280;BME280;12395;42.808;23.408;2023-04-28T00:14:52;95098.81;;;2.75;84.54
24280;BME280;12395;42.808;23.408;2023-04-28T00:17:18;95084.34;;;2.63;84.55
24280;BME280;12395;42.808;23.408;2023-04-28T00:19:43;95076.97;;;2.59;84.79
24280;BME280;12395;42.808;23.408;2023-04-28T00:22:09;95084.66;;;2.60;84.94
24280;BME280;12395;42.808;23.408;2023-04-28T00:24:34;95099.28;;;2.71;84.88
24280;BME280;12395;42.808;23.408;2023-04-28T00:27:00;95101.38;;;2.67;86.58
24280;BME280;12395;42.808;23.408;2023-04-28T00:29:27;95100.00;;;2.55;86.95
24280;BME280;12395;42.808;23.408;2023-04-28T00:31:53;95097.78;;;2.43;86.68
24280;BME280;12395;42.808;23.408;2023-04-28T00:34:18;95103.00;;;2.43;87.10
24280;BME280;12395;42.808;23.408;2023-04-28T00:36:43;95100.50;;;2.33;88.51
24280;BME280;12395;42.808;23.408;2023-04-28T00:39:09;95095.81;;;2.19;89.00
24280;BME280;12395;42.808;23.408;2023-04-28T00:41:34;95116.44;;;2.22;89.50
24280;BME280;12395;42.808;23.408;2023-04-28T00:44:00;95093.38;;;2.00;90.11
24280;BME280;12395;42.808;23.408;2023-04-28T00:46:29;95120.16;;;2.02;90.67
24280;BME280;12395;42.808;23.408;2023-04-28T00:48:56;95114.13;;;2.01;90.73
24280;BME280;12395;42.808;23.408;2023-04-28T00:51:22;95104.13;;;1.97;90.89
24280;BME280;12395;42.808;23.408;2023-04-28T00:53:48;95101.59;;;1.87;90.70
24280;BME280;12395;42.808;23.408;2023-04-28T00:56:14;95106.00;;;1.87;91.49
24280;BME280;12395;42.808;23.408;2023-04-28T00:58:40;95109.66;;;1.76;91.07
24280;BME280;12395;42.808;23.408;2023-04-28T01:01:07;95117.88;;;1.81;91.78
24280;BME280;12395;42.808;23.408;2023-04-28T01:03:34;95097.91;;;1.63;92.19
24280;BME280;12395;42.808;23.408;2023-04-28T01:06:00;95115.97;;;1.74;91.94
24280;BME280;12395;42.808;23.408;2023-04-28T01:08:29;95111.28;;;1.60;93.33
24280;BME280;12395;42.808;23.408;2023-04-28T01:10:55;95105.59;;;1.46;93.26
24280;BME280;12395;42.808;23.408;2023-04-28T01:13:20;95113.28;;;1.48;94.04
24280;BME280;12395;42.808;23.408;2023-04-28T01:15:46;95121.53;;;1.43;94.02
24280;BME280;12395;42.808;23.408;2023-04-28T01:18:11;95108.31;;;1.27;94.98
24280;BME280;12395;42.808;23.408;2023-04-28T01:20:37;95105.44;;;1.30;94.71
24280;BME280;12395;42.808;23.408;2023-04-28T01:23:03;95122.06;;;1.29;95.09
24280;BME280;12395;42.808;23.408;2023-04-28T01:25:28;95129.13;;;1.37;95.31
24280;BME280;12395;42.808;23.408;2023-04-28T01:27:54;95107.06;;;1.31;95.45
24280;BME280;12395;42.808;23.408;2023-04-28T01:30:19;95115.13;;;1.38;95.02
24280;BME280;12395;42.808;23.408;2023-04-28T01:32:45;95134.22;;;1.38;94.31
24280;BME280;12395;42.808;23.408;2023-04-28T01:35:10;95131.75;;;1.37;94.74
24280;BME280;12395;42.808;23.408;2023-04-28T01:37:35;95111.59;;;1.29;95.80
24280;BME280;12395;42.808;23.408;2023-04-28T01:40:01;95122.00;;;1.39;95.60
24280;BME280;12395;42.808;23.408;2023-04-28T01:42:26;95128.69;;;1.24;95.46
24280;BME280;12395;42.808;23.408;2023-04-28T01:44:52;95107.31;;;1.11;95.86
24280;BME280;12395;42.808;23.408;2023-04-28T01:47:19;95105.66;;;1.10;95.04
24280;BME280;12395;42.808;23.408;2023-04-28T01:49:44;95105.25;;;1.14;94.52
24280;BME280;12395;42.808;23.408;2023-04-28T01:52:12;95125.63;;;1.28;94.98
24280;BME280;12395;42.808;23.408;2023-04-28T01:54:37;95117.03;;;1.18;94.90
24280;BME280;12395;42.808;23.408;2023-04-28T01:57:02;95124.94;;;1.26;93.95
24280;BME280;12395;42.808;23.408;2023-04-28T01:59:28;95126.59;;;1.27;94.39
24280;BME280;12395;42.808;23.408;2023-04-28T02:01:53;95117.50;;;1.31;93.81
24280;BME280;12395;42.808;23.408;2023-04-28T02:04:18;95122.13;;;1.37;92.92
24280;BME280;12395;42.808;23.408;2023-04-28T02:06:44;95127.75;;;1.42;92.59
24280;BME280;12395;42.808;23.408;2023-04-28T02:09:09;95138.22;;;1.33;93.63
24280;BME280;12395;42.808;23.408;2023-04-28T02:11:35;95110.88;;;1.10;94.54
24280;BME280;12395;42.808;23.408;2023-04-28T02:14:00;95129.91;;;1.20;94.98
24280;BME280;12395;42.808;23.408;2023-04-28T02:16:25;95131.19;;;1.16;95.28
24280;BME280;12395;42.808;23.408;2023-04-28T02:18:51;95129.00;;;1.11;94.56
24280;BME280;12395;42.808;23.408;2023-04-28T02:21:16;95135.69;;;1.23;94.04
24280;BME280;12395;42.808;23.408;2023-04-28T02:23:42;95131.06;;;1.17;93.93
24280;BME280;12395;42.808;23.408;2023-04-28T02:26:07;95139.13;;;1.24;93.37
24280;BME280;12395;42.808;23.408;2023-04-28T02:28:32;95145.13;;;1.24;93.07
24280;BME280;12395;42.808;23.408;2023-04-28T02:31:07;95143.22;;;1.26;92.75
24280;BME280;12395;42.808;23.408;2023-04-28T02:33:33;95137.75;;;1.20;92.57
24280;BME280;12395;42.808;23.408;2023-04-28T02:35:59;95129.00;;;1.11;92.96
24280;BME280;12395;42.808;23.408;2023-04-28T02:38:25;95145.88;;;1.17;92.63
24280;BME280;12395;42.808;23.408;2023-04-28T02:41:17;95152.19;;;1.14;92.44
24280;BME280;12395;42.808;23.408;2023-04-28T02:43:42;95133.28;;;1.03;92.81
24280;BME280;12395;42.808;23.408;2023-04-28T02:46:08;95145.63;;;1.10;94.53
24280;BME280;12395;42.808;23.408;2023-04-28T02:48:33;95138.47;;;1.12;94.88
24280;BME280;12395;42.808;23.408;2023-04-28T02:51:00;95162.78;;;1.13;94.35
24280;BME280;12395;42.808;23.408;2023-04-28T02:53:26;95166.91;;;1.15;94.87
24280;BME280;12395;42.808;23.408;2023-04-28T02:55:51;95160.09;;;1.05;94.09
24280;BME280;12395;42.808;23.408;2023-04-28T02:58:17;95172.97;;;1.06;93.89
24280;BME280;12395;42.808;23.408;2023-04-28T03:00:43;95174.50;;;0.99;94.94
24280;BME280;12395;42.808;23.408;2023-04-28T03:03:09;95177.84;;;0.92;95.45
24280;BME280;12395;42.808;23.408;2023-04-28T03:05:34;95160.13;;;0.86;95.40
24280;BME280;12395;42.808;23.408;2023-04-28T03:08:00;95174.41;;;0.91;95.21
24280;BME280;12395;42.808;23.408;2023-04-28T03:10:25;95164.38;;;0.87;95.11
24280;BME280;12395;42.808;23.408;2023-04-28T03:12:51;95170.56;;;0.86;95.28
24280;BME280;12395;42.808;23.408;2023-04-28T03:15:16;95171.38;;;0.86;95.36
24280;BME280;12395;42.808;23.408;2023-04-28T03:17:42;95176.59;;;0.86;95.30
24280;BME280;12395;42.808;23.408;2023-04-28T03:20:08;95175.53;;;0.79;95.31
24280;BME280;12395;42.808;23.408;2023-04-28T03:22:34;95174.28;;;0.83;94.61
24280;BME280;12395;42.808;23.408;2023-04-28T03:25:00;95174.81;;;0.87;94.09
24280;BME280;12395;42.808;23.408;2023-04-28T03:27:26;95176.59;;;0.86;94.21
24280;BME280;12395;42.808;23.408;2023-04-28T03:29:51;95186.19;;;0.95;94.19
24280;BME280;12395;42.808;23.408;2023-04-28T03:32:17;95187.72;;;0.88;94.67
24280;BME280;12395;42.808;23.408;2023-04-28T03:34:42;95192.50;;;0.93;94.51
24280;BME280;12395;42.808;23.408;2023-04-28T03:37:08;95203.91;;;0.92;94.57
24280;BME280;12395;42.808;23.408;2023-04-28T03:39:33;95202.41;;;0.79;94.41
24280;BME280;12395;42.808;23.408;2023-04-28T03:41:59;95217.91;;;0.91;95.13
24280;BME280;12395;42.808;23.408;2023-04-28T03:44:25;95216.97;;;0.92;95.01
24280;BME280;12395;42.808;23.408;2023-04-28T03:46:50;95222.56;;;0.97;95.82
24280;BME280;12395;42.808;23.408;2023-04-28T03:49:16;95226.25;;;1.04;96.48
24280;BME280;12395;42.808;23.408;2023-04-28T03:51:41;95219.94;;;1.06;96.30
24280;BME280;12395;42.808;23.408;2023-04-28T03:54:07;95230.91;;;1.10;95.77
24280;BME280;12395;42.808;23.408;2023-04-28T03:56:33;95222.38;;;1.08;95.31
24280;BME280;12395;42.808;23.408;2023-04-28T03:58:58;95221.03;;;1.04;95.69
24280;BME280;12395;42.808;23.408;2023-04-28T04:01:23;95241.59;;;1.16;95.01
24280;BME280;12395;42.808;23.408;2023-04-28T04:03:49;95240.22;;;1.22;94.01
24280;BME280;12395;42.808;23.408;2023-04-28T04:06:14;95246.22;;;1.22;94.50
24280;BME280;12395;42.808;23.408;2023-04-28T04:08:40;95238.56;;;1.21;95.42
24280;BME280;12395;42.808;23.408;2023-04-28T04:11:06;95249.78;;;1.31;95.55
24280;BME280;12395;42.808;23.408;2023-04-28T04:13:31;95260.78;;;1.34;94.28
24280;BME280;12395;42.808;23.408;2023-04-28T04:15:56;95251.72;;;1.29;93.61
24280;BME280;12395;42.808;23.408;2023-04-28T04:18:22;95248.97;;;1.30;93.91
24280;BME280;12395;42.808;23.408;2023-04-28T04:20:47;95243.75;;;1.30;93.93
24280;BME280;12395;42.808;23.408;2023-04-28T04:23:14;95260.47;;;1.37;95.09
24280;BME280;12395;42.808;23.408;2023-04-28T04:25:39;95266.78;;;1.44;94.97
24280;BME280;12395;42.808;23.408;2023-04-28T04:28:05;95253.03;;;1.42;95.29
24280;BME280;12395;42.808;23.408;2023-04-28T04:30:30;95254.13;;;1.49;95.13
24280;BME280;12395;42.808;23.408;2023-04-28T04:32:56;95240.09;;;1.50;95.56
24280;BME280;12395;42.808;23.408;2023-04-28T04:35:21;95265.84;;;1.73;96.60
24280;BME280;12395;42.808;23.408;2023-04-28T04:37:47;95264.25;;;1.80;97.12
24280;BME280;12395;42.808;23.408;2023-04-28T04:40:12;95234.44;;;1.82;97.00
24280;BME280;12395;42.808;23.408;2023-04-28T04:42:37;95276.75;;;2.13;97.29
24280;BME280;12395;42.808;23.408;2023-04-28T04:45:03;95263.91;;;2.19;96.41
24280;BME280;12395;42.808;23.408;2023-04-28T04:47:28;95270.03;;;2.28;95.67
24280;BME280;12395;42.808;23.408;2023-04-28T04:49:54;95272.97;;;2.43;95.96
24280;BME280;12395;42.808;23.408;2023-04-28T04:52:20;95263.69;;;2.48;95.74
24280;BME280;12395;42.808;23.408;2023-04-28T04:54:45;95279.31;;;2.75;94.87
24280;BME280;12395;42.808;23.408;2023-04-28T04:57:11;95270.84;;;2.81;95.75
24280;BME280;12395;42.808;23.408;2023-04-28T04:59:37;95267.41;;;2.98;95.17
24280;BME280;12395;42.808;23.408;2023-04-28T05:02:02;95276.00;;;3.17;94.46
24280;BME280;12395;42.808;23.408;2023-04-28T05:04:27;95286.31;;;3.36;94.63
24280;BME280;12395;42.808;23.408;2023-04-28T05:06:53;95278.84;;;3.49;93.16
24280;BME280;12395;42.808;23.408;2023-04-28T05:09:18;95274.47;;;3.57;91.38
24280;BME280;12395;42.808;23.408;2023-04-28T05:11:44;95281.59;;;3.73;90.96
24280;BME280;12395;42.808;23.408;2023-04-28T05:14:09;95289.56;;;3.89;89.90
24280;BME280;12395;42.808;23.408;2023-04-28T05:16:36;95273.84;;;3.89;89.16
24280;BME280;12395;42.808;23.408;2023-04-28T05:19:02;95250.16;;;3.73;88.41
24280;BME280;12395;42.808;23.408;2023-04-28T05:21:28;95302.72;;;4.05;88.21
24280;BME280;12395;42.808;23.408;2023-04-28T05:23:53;95287.81;;;4.06;87.70
24280;BME280;12395;42.808;23.408;2023-04-28T05:26:18;95296.72;;;4.21;86.96
24280;BME280;12395;42.808;23.408;2023-04-28T05:28:44;95300.69;;;4.33;87.03
24280;BME280;12395;42.808;23.408;2023-04-28T05:31:09;95291.31;;;4.30;86.04
24280;BME280;12395;42.808;23.408;2023-04-28T05:33:35;95290.03;;;4.34;85.54
24280;BME280;12395;42.808;23.408;2023-04-28T05:36:00;95305.31;;;4.47;85.06
24280;BME280;12395;42.808;23.408;2023-04-28T05:38:25;95308.78;;;4.55;85.17
24280;BME280;12395;42.808;23.408;2023-04-28T05:40:51;95312.38;;;4.62;84.61
24280;BME280;12395;42.808;23.408;2023-04-28T05:43:16;95295.69;;;4.63;84.31
24280;BME280;12395;42.808;23.408;2023-04-28T05:45:42;95303.25;;;4.75;84.97
24280;BME280;12395;42.808;23.408;2023-04-28T05:48:07;95302.25;;;4.84;85.24
24280;BME280;12395;42.808;23.408;2023-04-28T05:50:32;95305.69;;;4.92;86.08
24280;BME280;12395;42.808;23.408;2023-04-28T05:52:58;95305.72;;;5.00;85.50
24280;BME280;12395;42.808;23.408;2023-04-28T05:55:23;95312.78;;;5.16;83.75
24280;BME280;12395;42.808;23.408;2023-04-28T05:57:49;95302.63;;;5.13;82.47
24280;BME280;12395;42.808;23.408;2023-04-28T06:00:15;95312.63;;;5.25;82.29
24280;BME280;12395;42.808;23.408;2023-04-28T06:02:40;95324.28;;;5.23;77.77
24280;BME280;12395;42.808;23.408;2023-04-28T06:05:06;95327.22;;;5.36;77.43
24280;BME280;12395;42.808;23.408;2023-04-28T06:07:31;95306.22;;;5.28;76.78
24280;BME280;12395;42.808;23.408;2023-04-28T06:09:57;95325.41;;;5.44;76.56
24280;BME280;12395;42.808;23.408;2023-04-28T06:12:22;95321.63;;;5.55;77.25
24280;BME280;12395;42.808;23.408;2023-04-28T06:14:48;95324.22;;;5.71;80.25
24280;BME280;12395;42.808;23.408;2023-04-28T06:17:13;95315.00;;;5.75;75.00
24280;BME280;12395;42.808;23.408;2023-04-28T06:19:38;95322.06;;;5.91;74.39
24280;BME280;12395;42.808;23.408;2023-04-28T06:22:04;95329.78;;;6.00;75.09
24280;BME280;12395;42.808;23.408;2023-04-28T06:24:29;95321.75;;;5.94;73.89
24280;BME280;12395;42.808;23.408;2023-04-28T06:26:55;95324.47;;;6.08;74.22
24280;BME280;12395;42.808;23.408;2023-04-28T06:29:20;95324.44;;;6.16;75.16
24280;BME280;12395;42.808;23.408;2023-04-28T06:31:48;95318.19;;;6.26;75.42
24280;BME280;12395;42.808;23.408;2023-04-28T06:34:13;95329.63;;;6.41;75.50
24280;BME280;12395;42.808;23.408;2023-04-28T06:36:38;95326.63;;;6.44;75.90
24280;BME280;12395;42.808;23.408;2023-04-28T06:39:04;95329.94;;;6.46;75.81
24280;BME280;12395;42.808;23.408;2023-04-28T06:41:29;95327.13;;;6.47;74.03
24280;BME280;12395;42.808;23.408;2023-04-28T06:43:55;95321.63;;;6.57;76.21
24280;BME280;12395;42.808;23.408;2023-04-28T06:46:21;95325.41;;;6.62;71.50
24280;BME280;12395;42.808;23.408;2023-04-28T06:48:46;95319.97;;;6.64;69.42
24280;BME280;12395;42.808;23.408;2023-04-28T06:51:11;95317.91;;;6.74;70.93
24280;BME280;12395;42.808;23.408;2023-04-28T06:53:37;95330.81;;;6.91;69.25
24280;BME280;12395;42.808;23.408;2023-04-28T06:56:03;95332.09;;;6.95;70.99
24280;BME280;12395;42.808;23.408;2023-04-28T06:58:29;95330.13;;;6.97;66.45
24280;BME280;12395;42.808;23.408;2023-04-28T07:00:54;95330.59;;;7.01;64.01
24280;BME280;12395;42.808;23.408;2023-04-28T07:03:20;95325.56;;;7.14;64.47
24280;BME280;12395;42.808;23.408;2023-04-28T07:05:45;95335.41;;;7.20;62.69
24280;BME280;12395;42.808;23.408;2023-04-28T07:08:11;95323.50;;;7.24;62.50
24280;BME280;12395;42.808;23.408;2023-04-28T07:10:36;95334.94;;;7.39;60.31
24280;BME280;12395;42.808;23.408;2023-04-28T07:13:01;95327.94;;;7.46;62.01
24280;BME280;12395;42.808;23.408;2023-04-28T07:15:27;95318.22;;;7.61;61.93
24280;BME280;12395;42.808;23.408;2023-04-28T07:17:52;95320.81;;;7.69;59.93
24280;BME280;12395;42.808;23.408;2023-04-28T07:20:18;95331.00;;;7.72;58.72
24280;BME280;12395;42.808;23.408;2023-04-28T07:22:43;95316.44;;;7.76;59.73
24280;BME280;12395;42.808;23.408;2023-04-28T07:25:09;95318.66;;;7.88;58.93
24280;BME280;12395;42.808;23.408;2023-04-28T07:27:34;95313.03;;;7.91;59.71
24280;BME280;12395;42.808;23.408;2023-04-28T07:29:59;95315.56;;;7.99;58.02
24280;BME280;12395;42.808;23.408;2023-04-28T07:32:25;95319.28;;;8.04;57.27
24280;BME280;12395;42.808;23.408;2023-04-28T07:34:50;95301.09;;;8.09;57.85
24280;BME280;12395;42.808;23.408;2023-04-28T07:37:16;95320.78;;;8.36;58.55
24280;BME280;12395;42.808;23.408;2023-04-28T07:39:42;95310.88;;;8.38;56.82
24280;BME280;12395;42.808;23.408;2023-04-28T07:42:09;95317.94;;;8.52;55.69
24280;BME280;12395;42.808;23.408;2023-04-28T07:44:35;95315.03;;;8.62;55.49
24280;BME280;12395;42.808;23.408;2023-04-28T07:47:01;95317.28;;;8.65;56.39
24280;BME280;12395;42.808;23.408;2023-04-28T07:49:30;95316.44;;;8.64;56.49
24280;BME280;12395;42.808;23.408;2023-04-28T07:51:56;95308.53;;;8.64;54.40
24280;BME280;12395;42.808;23.408;2023-04-28T07:54:22;95282.63;;;8.53;55.16
24280;BME280;12395;42.808;23.408;2023-04-28T07:56:47;95310.06;;;8.73;55.70
24280;BME280;12395;42.808;23.408;2023-04-28T07:59:13;95319.66;;;8.95;56.18
24280;BME280;12395;42.808;23.408;2023-04-28T08:01:38;95296.09;;;8.94;53.38
24280;BME280;12395;42.808;23.408;2023-04-28T08:04:04;95308.69;;;8.98;54.17
24280;BME280;12395;42.808;23.408;2023-04-28T08:06:29;95298.13;;;8.98;56.45
24280;BME280;12395;42.808;23.408;2023-04-28T08:08:55;95312.81;;;9.22;51.99
24280;BME280;12395;42.808;23.408;2023-04-28T08:11:20;95308.41;;;9.29;51.34
24280;BME280;12395;42.808;23.408;2023-04-28T08:13:47;95312.13;;;9.34;52.32
24280;BME280;12395;42.808;23.408;2023-04-28T08:16:13;95303.44;;;9.41;53.15
24280;BME280;12395;42.808;23.408;2023-04-28T08:18:39;95299.53;;;9.58;53.78
24280;BME280;12395;42.808;23.408;2023-04-28T08:21:04;95304.16;;;9.77;53.84
24280;BME280;12395;42.808;23.408;2023-04-28T08:23:30;95299.03;;;9.75;52.72
24280;BME280;12395;42.808;23.408;2023-04-28T08:25:56;95288.06;;;9.78;54.50
24280;BME280;12395;42.808;23.408;2023-04-28T08:28:22;95305.53;;;10.00;52.84
24280;BME280;12395;42.808;23.408;2023-04-28T08:30:47;95299.84;;;10.03;50.11
24280;BME280;12395;42.808;23.408;2023-04-28T08:33:13;95294.59;;;10.10;51.36
24280;BME280;12395;42.808;23.408;2023-04-28T08:35:38;95287.38;;;10.25;53.10
24280;BME280;12395;42.808;23.408;2023-04-28T08:38:05;95293.97;;;10.42;50.79
24280;BME280;12395;42.808;23.408;2023-04-28T08:40:31;95293.00;;;10.50;49.03
24280;BME280;12395;42.808;23.408;2023-04-28T08:42:58;95291.38;;;10.55;49.86
24280;BME280;12395;42.808;23.408;2023-04-28T08:45:24;95279.41;;;10.66;51.05
24280;BME280;12395;42.808;23.408;2023-04-28T08:47:50;95277.78;;;10.71;49.56
24280;BME280;12395;42.808;23.408;2023-04-28T08:50:20;95266.38;;;10.64;49.14
24280;BME280;12395;42.808;23.408;2023-04-28T08:52:46;95293.97;;;10.90;48.13
24280;BME280;12395;42.808;23.408;2023-04-28T08:55:12;95278.25;;;10.81;47.84
24280;BME280;12395;42.808;23.408;2023-04-28T09:00:03;95270.97;;;11.16;50.51
24280;BME280;12395;42.808;23.408;2023-04-28T09:02:29;95268.75;;;11.33;48.30
24280;BME280;12395;42.808;23.408;2023-04-28T09:04:54;95274.69;;;11.54;51.32
24280;BME280;12395;42.808;23.408;2023-04-28T09:07:20;95273.44;;;11.50;47.54
24280;BME280;12395;42.808;23.408;2023-04-28T09:09:45;95261.59;;;11.46;48.52
24280;BME280;12395;42.808;23.408;2023-04-28T09:12:11;95269.81;;;11.71;47.72
24280;BME280;12395;42.808;23.408;2023-04-28T09:14:37;95271.03;;;11.75;46.88
24280;BME280;12395;42.808;23.408;2023-04-28T09:17:09;95264.06;;;11.61;46.41
24280;BME280;12395;42.808;23.408;2023-04-28T09:19:37;95266.31;;;11.57;45.52
24280;BME280;12395;42.808;23.408;2023-04-28T09:22:03;95260.81;;;11.52;45.87
24280;BME280;12395;42.808;23.408;2023-04-28T09:24:37;95258.78;;;11.54;45.35
24280;BME280;12395;42.808;23.408;2023-04-28T09:27:09;95262.63;;;11.39;44.22
24280;BME280;12395;42.808;23.408;2023-04-28T09:29:51;95245.28;;;11.49;45.63
24280;BME280;12395;42.808;23.408;2023-04-28T09:32:17;95255.09;;;11.75;46.60
24280;BME280;12395;42.808;23.408;2023-04-28T09:34:52;95235.69;;;11.81;45.48
24280;BME280;12395;42.808;23.408;2023-04-28T09:37:19;95247.09;;;12.01;44.77
24280;BME280;12395;42.808;23.408;2023-04-28T09:39:50;95229.28;;;12.15;46.63
24280;BME280;12395;42.808;23.408;2023-04-28T09:42:42;95231.88;;;12.34;46.32
24280;BME280;12395;42.808;23.408;2023-04-28T09:45:10;95233.75;;;12.27;46.20
24280;BME280;12395;42.808;23.408;2023-04-28T09:47:36;95227.88;;;12.12;43.03
24280;BME280;12395;42.808;23.408;2023-04-28T09:50:07;95215.06;;;11.90;44.93
24280;BME280;12395;42.808;23.408;2023-04-28T09:52:39;95228.09;;;12.04;43.61
24280;BME280;12395;42.808;23.408;2023-04-28T09:55:06;95220.38;;;11.90;43.12
24280;BME280;12395;42.808;23.408;2023-04-28T09:57:37;95223.22;;;12.01;43.99
24280;BME280;12395;42.808;23.408;2023-04-28T10:00:04;95213.38;;;12.08;45.87
24280;BME280;12395;42.808;23.408;2023-04-28T10:02:31;95215.78;;;12.23;44.34
24280;BME280;12395;42.808;23.408;2023-04-28T10:04:58;95213.56;;;12.13;43.19
24280;BME280;12395;42.808;23.408;2023-04-28T10:07:25;95210.72;;;12.08;41.97
24280;BME280;12395;42.808;23.408;2023-04-28T10:09:51;95179.50;;;12.04;43.76
24280;BME280;12395;42.808;23.408;2023-04-28T10:12:18;95195.34;;;12.23;45.78
24280;BME280;12395;42.808;23.408;2023-04-28T10:14:44;95200.00;;;12.34;43.54
24280;BME280;12395;42.808;23.408;2023-04-28T10:17:13;95204.03;;;12.50;43.75
24280;BME280;12395;42.808;23.408;2023-04-28T10:19:43;95198.34;;;12.47;45.08
24280;BME280;12395;42.808;23.408;2023-04-28T10:27:41;95211.13;;;12.63;41.98
24280;BME280;12395;42.808;23.408;2023-04-28T10:30:13;95215.59;;;12.69;44.35
24280;BME280;12395;42.808;23.408;2023-04-28T10:32:39;95198.16;;;12.73;42.90
24280;BME280;12395;42.808;23.408;2023-04-28T10:40:39;95189.25;;;12.92;45.03
24280;BME280;12395;42.808;23.408;2023-04-28T10:43:10;95183.94;;;12.92;43.42
24280;BME280;12395;42.808;23.408;2023-04-28T10:48:17;95167.97;;;12.92;41.45
24280;BME280;12395;42.808;23.408;2023-04-28T10:56:13;95160.41;;;12.95;43.49
24280;BME280;12395;42.808;23.408;2023-04-28T10:58:41;95164.25;;;12.99;42.10
24280;BME280;12395;42.808;23.408;2023-04-28T11:09:02;95150.28;;;13.35;45.58
24280;BME280;12395;42.808;23.408;2023-04-28T11:11:34;95157.03;;;13.38;43.26
24280;BME280;12395;42.808;23.408;2023-04-28T11:16:48;95142.97;;;13.31;42.94
24280;BME280;12395;42.808;23.408;2023-04-28T11:19:19;95146.44;;;13.31;41.76
24280;BME280;12395;42.808;23.408;2023-04-28T11:21:45;95142.59;;;13.27;41.84
24280;BME280;12395;42.808;23.408;2023-04-28T11:24:12;95134.28;;;13.42;43.57
24280;BME280;12395;42.808;23.408;2023-04-28T11:26:37;95116.94;;;13.57;43.83
24280;BME280;12395;42.808;23.408;2023-04-28T11:29:03;95135.38;;;13.77;42.19
24280;BME280;12395;42.808;23.408;2023-04-28T11:31:28;95121.13;;;13.65;40.28
24280;BME280;12395;42.808;23.408;2023-04-28T11:34:11;95114.13;;;13.70;43.01
24280;BME280;12395;42.808;23.408;2023-04-28T11:36:39;95124.31;;;13.73;41.79
24280;BME280;12395;42.808;23.408;2023-04-28T11:39:06;95118.25;;;13.84;40.47
24280;BME280;12395;42.808;23.408;2023-04-28T11:41:36;95123.22;;;13.81;39.91
24280;BME280;12395;42.808;23.408;2023-04-28T11:44:22;95109.97;;;13.74;41.92
24280;BME280;12395;42.808;23.408;2023-04-28T11:46:55;95109.38;;;13.90;41.02
24280;BME280;12395;42.808;23.408;2023-04-28T11:49:23;95093.88;;;13.87;42.25
24280;BME280;12395;42.808;23.408;2023-04-28T11:52:03;95113.66;;;14.10;41.95
24280;BME280;12395;42.808;23.408;2023-04-28T11:54:30;95112.09;;;14.20;40.98
24280;BME280;12395;42.808;23.408;2023-04-28T11:56:56;95096.38;;;14.01;39.94
24280;BME280;12395;42.808;23.408;2023-04-28T12:02:11;95108.78;;;14.07;41.02
24280;BME280;12395;42.808;23.408;2023-04-28T12:04:40;95099.75;;;14.26;41.79
24280;BME280;12395;42.808;23.408;2023-04-28T12:09:35;95095.38;;;14.61;41.04
24280;BME280;12395;42.808;23.408;2023-04-28T12:12:06;95092.59;;;14.67;40.95
24280;BME280;12395;42.808;23.408;2023-04-28T12:14:51;95088.78;;;14.63;40.64
24280;BME280;12395;42.808;23.408;2023-04-28T12:19:53;95067.25;;;14.77;39.38
24280;BME280;12395;42.808;23.408;2023-04-28T12:22:18;95067.00;;;14.66;39.62
24280;BME280;12395;42.808;23.408;2023-04-28T12:24:44;95067.38;;;14.82;41.03
24280;BME280;12395;42.808;23.408;2023-04-28T12:27:17;95069.72;;;15.13;40.98
24280;BME280;12395;42.808;23.408;2023-04-28T12:29:46;95062.78;;;15.23;38.08
24280;BME280;12395;42.808;23.408;2023-04-28T12:32:12;95066.13;;;15.19;39.25
24280;BME280;12395;42.808;23.408;2023-04-28T12:34:38;95055.22;;;15.09;38.18
24280;BME280;12395;42.808;23.408;2023-04-28T12:37:05;95055.00;;;15.22;38.28
24280;BME280;12395;42.808;23.408;2023-04-28T12:39:35;95043.63;;;15.15;38.04
24280;BME280;12395;42.808;23.408;2023-04-28T12:42:01;95051.41;;;15.39;38.28
24280;BME280;12395;42.808;23.408;2023-04-28T12:44:31;95041.31;;;15.53;38.84
24280;BME280;12395;42.808;23.408;2023-04-28T12:46:59;95041.50;;;15.63;36.87
24280;BME280;12395;42.808;23.408;2023-04-28T12:49:25;95042.19;;;15.82;38.44
24280;BME280;12395;42.808;23.408;2023-04-28T12:51:50;95038.00;;;15.86;39.59
24280;BME280;12395;42.808;23.408;2023-04-28T12:54:15;95038.13;;;15.91;37.95
24280;BME280;12395;42.808;23.408;2023-04-28T12:56:41;95038.56;;;15.88;38.51
24280;BME280;12395;42.808;23.408;2023-04-28T12:59:07;95029.28;;;15.90;37.95
24280;BME280;12395;42.808;23.408;2023-04-28T13:01:32;95017.41;;;15.98;37.45
24280;BME280;12395;42.808;23.408;2023-04-28T13:03:58;95023.38;;;16.16;37.80
24280;BME280;12395;42.808;23.408;2023-04-28T13:06:23;95013.19;;;16.30;39.48
24280;BME280;12395;42.808;23.408;2023-04-28T13:08:49;95013.47;;;16.45;37.56
24280;BME280;12395;42.808;23.408;2023-04-28T13:11:14;95019.78;;;16.39;36.96
24280;BME280;12395;42.808;23.408;2023-04-28T13:13:40;95002.44;;;16.25;37.32
24280;BME280;12395;42.808;23.408;2023-04-28T13:16:06;95006.41;;;16.39;38.88
24280;BME280;12395;42.808;23.408;2023-04-28T13:18:32;95000.41;;;16.49;36.89
24280;BME280;12395;42.808;23.408;2023-04-28T13:20:58;95009.66;;;16.53;36.80
24280;BME280;12395;42.808;23.408;2023-04-28T13:23:23;94998.78;;;16.59;37.62
24280;BME280;12395;42.808;23.408;2023-04-28T13:25:49;94990.50;;;16.77;36.89
24280;BME280;12395;42.808;23.408;2023-04-28T13:28:15;95005.44;;;16.73;34.93
24280;BME280;12395;42.808;23.408;2023-04-28T13:30:40;95010.88;;;16.78;35.51
24280;BME280;12395;42.808;23.408;2023-04-28T13:33:06;95005.03;;;16.81;34.05